Time;durP1;ratioP1;P1;durP2;ratioP2;P2;SDS_P1;SDS_P2;PMS_P1;PMS_P2;Temp;Humidity;BMP_temperature;BMP_pressure;BME280_temperature;BME280_humidity;BME280_pressure;Samples;Min_cycle;Max_cycle;Signal;HPM_P1;HPM_P2
2022/01/18 00:04:20;;;;;;;3.47;1.70;;;17.50;62.90;;;;;;10446963;28;20221;-67
2022/01/18 00:09:42;;;;;;;3.37;1.87;;;17.50;62.90;;;;;;10454062;28;20193;-67
2022/01/18 00:15:29;;;;;;;4.40;1.80;;;17.50;62.80;;;;;;10452929;28;20235;-68
2022/01/18 00:21:11;;;;;;;3.40;1.80;;;17.40;62.80;;;;;;10450698;28;20346;-68
2022/01/18 00:26:34;;;;;;;3.83;1.60;;;17.40;62.90;;;;;;10452768;28;20212;-68
2022/01/18 00:32:10;;;;;;;4.70;1.40;;;17.40;62.80;;;;;;10451761;28;20626;-66
2022/01/18 00:37:36;;;;;;;2.93;1.43;;;17.40;62.90;;;;;;10426938;28;20200;-67
2022/01/18 00:42:58;;;;;;;3.43;1.97;;;17.50;62.90;;;;;;10452504;28;20213;-67
2022/01/18 00:48:20;;;;;;;4.93;1.90;;;17.50;63.00;;;;;;10452104;28;20687;-68
2022/01/18 00:53:46;;;;;;;4.73;1.60;;;17.40;62.90;;;;;;10452613;28;20216;-67
2022/01/18 00:59:08;;;;;;;3.30;1.50;;;17.40;62.90;;;;;;10450628;28;20583;-67
2022/01/18 01:04:34;;;;;;;3.33;1.67;;;17.50;62.90;;;;;;10427247;28;20231;-67
2022/01/18 01:09:58;;;;;;;3.57;1.57;;;17.40;62.80;;;;;;10450859;28;20572;-67
2022/01/18 01:15:23;;;;;;;3.63;1.30;;;17.40;62.90;;;;;;10451100;28;20232;-68
2022/01/18 01:43:49;;;;;;;2.50;1.57;;;17.40;62.90;;;;;;10417707;28;20290;-68
2022/01/18 01:49:13;;;;;;;4.10;1.67;;;17.40;62.90;;;;;;10416928;28;20328;-67
2022/01/18 01:54:36;;;;;;;3.83;1.73;;;17.40;63.00;;;;;;10454590;28;20217;-68
2022/01/18 01:59:59;;;;;;;2.40;1.07;;;17.40;63.00;;;;;;10433392;28;20201;-67
2022/01/18 02:05:22;;;;;;;3.23;1.47;;;17.40;63.00;;;;;;10417448;28;20222;-68
2022/01/18 02:10:45;;;;;;;3.07;1.17;;;17.40;63.00;;;;;;10417040;28;20198;-68
2022/01/18 02:16:19;;;;;;;3.47;1.43;;;17.40;63.00;;;;;;10448992;28;20221;-67
2022/01/18 02:21:49;;;;;;;4.37;1.40;;;17.40;63.00;;;;;;10454468;28;20209;-67
2022/01/18 02:27:11;;;;;;;2.53;1.57;;;17.40;63.10;;;;;;10423473;28;20581;-67
2022/01/18 02:32:34;;;;;;;2.60;1.20;;;17.40;63.00;;;;;;10416791;28;20799;-67
2022/01/18 02:37:57;;;;;;;2.30;1.13;;;17.40;63.00;;;;;;10415287;28;20205;-67
2022/01/18 02:48:59;;;;;;;2.63;1.20;;;17.40;63.10;;;;;;10414268;28;20186;-67
2022/01/18 02:54:23;;;;;;;2.20;1.20;;;17.40;63.10;;;;;;10437468;28;20224;-68
2022/01/18 02:59:48;;;;;;;3.47;1.40;;;17.40;63.10;;;;;;10448772;28;20194;-68
2022/01/18 03:05:12;;;;;;;3.57;1.40;;;17.40;63.00;;;;;;10413929;28;20224;-66
2022/01/18 03:10:36;;;;;;;1.77;1.00;;;17.40;63.00;;;;;;10447747;28;20571;-66
2022/01/18 03:15:58;;;;;;;2.33;1.17;;;17.40;63.10;;;;;;10456131;28;20216;-66
2022/01/18 03:21:20;;;;;;;2.97;1.10;;;17.40;63.10;;;;;;10454434;28;20219;-66
2022/01/18 03:32:20;;;;;;;2.23;1.00;;;17.40;63.10;;;;;;10416909;28;20224;-67
2022/01/18 03:37:42;;;;;;;2.37;1.17;;;17.40;63.20;;;;;;10454524;28;20204;-68
2022/01/18 03:43:08;;;;;;;2.60;1.23;;;17.40;63.20;;;;;;10453034;28;20224;-66
2022/01/18 03:48:33;;;;;;;1.77;0.77;;;17.40;63.20;;;;;;10429083;28;20252;-68
2022/01/18 03:53:55;;;;;;;2.43;0.73;;;17.40;63.20;;;;;;10447622;28;20217;-67
2022/01/18 03:59:19;;;;;;;2.47;1.00;;;17.40;63.20;;;;;;10453602;28;20204;-67
2022/01/18 04:04:41;;;;;;;1.57;0.97;;;17.40;63.20;;;;;;10453270;28;20220;-67
2022/01/18 04:10:05;;;;;;;1.73;0.90;;;17.40;63.20;;;;;;10433976;28;20221;-66
2022/01/18 04:15:29;;;;;;;1.80;1.07;;;17.40;63.20;;;;;;10412000;28;20210;-67
2022/01/18 04:32:11;;;;;;;1.77;0.90;;;17.40;63.30;;;;;;10451399;28;20181;-67
2022/01/18 04:37:33;;;;;;;2.60;1.07;;;17.40;63.20;;;;;;10432851;28;20197;-66
2022/01/18 04:43:06;;;;;;;2.27;0.90;;;17.40;63.30;;;;;;10411429;28;20229;-67
2022/01/18 04:48:31;;;;;;;1.40;0.80;;;17.40;63.30;;;;;;10411235;28;20190;-67
2022/01/18 04:53:57;;;;;;;1.30;0.80;;;17.40;63.20;;;;;;10411423;28;20684;-68
2022/01/18 04:59:20;;;;;;;1.57;0.90;;;17.40;63.20;;;;;;10412209;28;20197;-67
2022/01/18 05:04:43;;;;;;;1.63;0.87;;;17.40;63.20;;;;;;10458383;22;20232;-65
2022/01/18 05:10:06;;;;;;;2.00;1.00;;;17.50;63.20;;;;;;10457911;28;20201;-65
2022/01/18 05:15:42;;;;;;;1.50;0.70;;;17.50;63.20;;;;;;10479854;28;20291;-65
2022/01/18 05:21:12;;;;;;;1.20;0.80;;;17.50;63.20;;;;;;10471448;28;20243;-66
2022/01/18 05:26:34;;;;;;;1.30;0.80;;;17.50;63.30;;;;;;10459016;28;20224;-65
2022/01/18 05:31:57;;;;;;;1.53;0.80;;;17.50;63.40;;;;;;10458651;28;20197;-65
2022/01/18 05:37:20;;;;;;;1.63;0.80;;;17.50;63.40;;;;;;10459316;28;20288;-65
2022/01/18 05:42:43;;;;;;;1.37;0.67;;;17.50;63.40;;;;;;10465552;28;20215;-65
2022/01/18 05:48:06;;;;;;;2.40;0.70;;;17.50;63.50;;;;;;10466562;28;20196;-66
2022/01/18 05:53:31;;;;;;;1.23;0.50;;;17.50;63.40;;;;;;10474512;28;20220;-66
2022/01/18 05:58:56;;;;;;;1.00;0.60;;;17.50;63.20;;;;;;10452827;28;20573;-65
2022/01/18 06:09:56;;;;;;;0.90;0.60;;;17.50;63.20;;;;;;10456182;28;20560;-66
2022/01/18 06:15:19;;;;;;;2.57;0.80;;;17.50;63.30;;;;;;10457135;28;20362;-65
2022/01/18 06:20:43;;;;;;;1.07;0.80;;;17.50;63.20;;;;;;10457006;28;20205;-65
2022/01/18 06:26:06;;;;;;;2.03;0.80;;;17.50;63.20;;;;;;10457631;28;20271;-65
2022/01/18 06:31:28;;;;;;;1.50;0.77;;;17.50;63.20;;;;;;10455527;28;20572;-66
2022/01/18 06:36:51;;;;;;;1.53;0.73;;;17.50;63.20;;;;;;10457148;28;20577;-66
2022/01/18 06:42:14;;;;;;;1.50;0.90;;;17.50;63.00;;;;;;10458780;28;20224;-66
2022/01/18 06:47:38;;;;;;;2.83;1.20;;;17.50;62.90;;;;;;10484867;28;20706;-66
2022/01/18 06:53:00;;;;;;;2.20;0.97;;;17.40;62.80;;;;;;10470365;28;20680;-67
2022/01/18 06:58:23;;;;;;;1.00;0.80;;;17.40;62.80;;;;;;10458932;28;20204;-67
2022/01/18 07:03:47;;;;;;;2.13;0.97;;;17.40;62.60;;;;;;10455688;28;20225;-67
2022/01/18 07:09:09;;;;;;;2.37;1.13;;;17.40;62.90;;;;;;10454443;28;20189;-66
2022/01/18 07:14:32;;;;;;;3.60;1.30;;;17.40;63.20;;;;;;10451887;28;20210;-67
2022/01/18 07:19:54;;;;;;;1.87;1.03;;;17.50;63.30;;;;;;10458727;28;20680;-67
2022/01/18 07:25:18;;;;;;;2.83;1.10;;;17.50;63.30;;;;;;10441907;28;20259;-66
2022/01/18 07:30:42;;;;;;;2.63;0.83;;;17.50;63.30;;;;;;10449980;28;20317;-68
2022/01/18 07:36:05;;;;;;;2.57;1.43;;;17.50;63.50;;;;;;10452186;28;20584;-67
2022/01/18 07:41:27;;;;;;;2.90;1.40;;;17.50;63.50;;;;;;10453183;28;20204;-67
2022/01/18 07:46:50;;;;;;;2.70;1.30;;;17.50;63.70;;;;;;10454383;28;20225;-68
2022/01/18 07:52:12;;;;;;;3.47;1.73;;;17.50;63.80;;;;;;10452114;28;20608;-67
2022/01/18 07:57:36;;;;;;;3.07;1.50;;;17.50;64.00;;;;;;10450592;28;20225;-67
2022/01/18 08:03:00;;;;;;;1.90;1.33;;;17.40;64.00;;;;;;10466357;28;20252;-67
2022/01/18 08:08:22;;;;;;;1.73;1.07;;;17.40;64.10;;;;;;10451934;28;20676;-67
2022/01/18 08:13:48;;;;;;;3.97;1.33;;;17.40;64.10;;;;;;10452726;28;20689;-67
2022/01/18 08:19:11;;;;;;;1.50;1.10;;;17.40;64.20;;;;;;10450165;28;20193;-68
2022/01/18 08:24:34;;;;;;;2.63;1.30;;;17.40;64.20;;;;;;10417191;28;20219;-66
2022/01/18 08:29:56;;;;;;;3.10;1.60;;;17.40;64.40;;;;;;10450005;28;20189;-66
2022/01/18 08:35:19;;;;;;;2.33;1.27;;;17.40;64.40;;;;;;10448603;28;20220;-66
2022/01/18 08:40:41;;;;;;;1.73;0.97;;;17.40;64.40;;;;;;10450231;28;20695;-67
2022/01/18 08:46:04;;;;;;;2.03;1.20;;;17.40;64.60;;;;;;10454758;28;20233;-66
2022/01/18 08:51:28;;;;;;;3.87;1.70;;;17.50;64.60;;;;;;10446284;28;20212;-66
2022/01/18 08:56:50;;;;;;;4.03;1.13;;;17.40;64.60;;;;;;10451011;28;20635;-67
2022/01/18 09:02:13;;;;;;;3.13;1.40;;;17.50;64.80;;;;;;10452181;28;20568;-66
2022/01/18 09:07:38;;;;;;;3.17;1.50;;;17.50;64.80;;;;;;10458226;28;20402;-67
2022/01/18 09:13:00;;;;;;;2.77;1.20;;;17.50;64.80;;;;;;10473941;28;20274;-66
2022/01/18 09:18:22;;;;;;;2.07;1.10;;;17.50;64.80;;;;;;10448100;28;20208;-66
2022/01/18 09:23:46;;;;;;;1.80;1.13;;;17.40;64.80;;;;;;10442886;28;20278;-66
2022/01/18 09:29:10;;;;;;;2.63;1.23;;;17.40;64.80;;;;;;10435481;28;20193;-66
2022/01/18 09:34:32;;;;;;;3.00;1.13;;;17.40;64.90;;;;;;10449707;28;20236;-67
2022/01/18 09:39:55;;;;;;;2.03;1.20;;;17.40;64.90;;;;;;10448276;28;20208;-67
2022/01/18 09:45:18;;;;;;;1.53;1.10;;;17.50;65.00;;;;;;10449692;28;20225;-67
2022/01/18 09:50:43;;;;;;;2.80;1.30;;;17.40;65.00;;;;;;10456245;28;20193;-66
2022/01/18 09:56:06;;;;;;;2.60;1.27;;;17.40;65.00;;;;;;10455758;28;20224;-66
2022/01/18 10:01:29;;;;;;;3.60;1.20;;;17.40;65.00;;;;;;10477455;28;20201;-66
2022/01/18 10:06:54;;;;;;;2.90;1.10;;;17.40;65.00;;;;;;10453477;28;20296;-66
2022/01/18 10:12:23;;;;;;;3.73;1.20;;;17.40;65.00;;;;;;10456669;28;20568;-66
2022/01/18 10:17:45;;;;;;;2.30;1.10;;;17.40;65.00;;;;;;10455892;28;20209;-67
2022/01/18 10:23:07;;;;;;;2.13;0.97;;;17.40;65.00;;;;;;10455627;28;20220;-66
2022/01/18 10:28:33;;;;;;;1.50;0.77;;;17.50;65.00;;;;;;10456224;28;20200;-66
2022/01/18 10:34:22;;;;;;;1.90;1.00;;;17.50;64.90;;;;;;10457079;28;20263;-67
2022/01/18 10:39:48;;;;;;;2.73;0.90;;;17.60;64.80;;;;;;10454880;28;20193;-67
2022/01/18 10:45:14;;;;;;;2.07;1.10;;;17.60;64.90;;;;;;10454799;28;20221;-66
2022/01/18 10:50:39;;;;;;;2.33;1.20;;;17.60;64.70;;;;;;10455433;28;20208;-66
2022/01/18 10:56:14;;;;;;;2.00;0.93;;;17.60;64.70;;;;;;10448104;28;20212;-65
2022/01/18 11:01:37;;;;;;;2.83;1.17;;;17.60;64.50;;;;;;10442307;28;20620;-66
2022/01/18 11:07:02;;;;;;;2.43;0.97;;;17.60;64.50;;;;;;10449966;28;20228;-66
2022/01/18 11:12:27;;;;;;;2.63;1.17;;;17.60;64.40;;;;;;10475789;28;20200;-66
2022/01/18 11:17:57;;;;;;;2.77;1.10;;;17.60;64.40;;;;;;10451985;28;20669;-66
2022/01/18 11:23:22;;;;;;;2.33;0.90;;;17.60;64.40;;;;;;10459076;28;20224;-66
2022/01/18 11:28:44;;;;;;;1.30;0.80;;;17.60;64.40;;;;;;10451294;28;20204;-66
2022/01/18 11:34:12;;;;;;;3.00;0.80;;;17.60;64.30;;;;;;10451225;28;20209;-66
2022/01/18 11:39:34;;;;;;;1.73;0.90;;;17.70;64.30;;;;;;10445886;28;20196;-66
2022/01/18 11:44:57;;;;;;;2.23;1.00;;;17.60;64.30;;;;;;10413232;28;20217;-66
2022/01/18 11:50:20;;;;;;;3.40;1.17;;;17.60;64.20;;;;;;10433485;28;20606;-66
2022/01/18 11:55:45;;;;;;;3.33;1.30;;;17.60;64.20;;;;;;10451838;28;20209;-67
2022/01/18 12:01:08;;;;;;;2.23;0.90;;;17.60;64.20;;;;;;10452884;28;20233;-66
2022/01/18 12:06:47;;;;;;;2.10;0.77;;;17.60;64.20;;;;;;10451586;28;20217;-66
2022/01/18 12:12:53;;;;;;;2.27;0.77;;;17.60;64.00;;;;;;10460941;28;20205;-66
2022/01/18 12:18:17;;;;;;;2.73;0.90;;;17.60;63.90;;;;;;10447482;28;20212;-66
2022/01/18 12:23:44;;;;;;;1.57;0.80;;;17.60;64.20;;;;;;10428922;28;20801;-66
2022/01/18 12:35:00;;;;;;;2.37;1.00;;;17.60;64.00;;;;;;10448171;28;20212;-66
2022/01/18 12:40:31;;;;;;;1.67;1.13;;;17.60;64.10;;;;;;10449772;28;20194;-66
2022/01/18 12:45:54;;;;;;;1.30;0.80;;;17.60;64.10;;;;;;10445865;28;20259;-65
2022/01/18 12:51:17;;;;;;;3.13;1.20;;;17.60;64.20;;;;;;10424354;28;20200;-66
2022/01/18 12:56:41;;;;;;;3.07;0.90;;;17.60;63.90;;;;;;10446978;28;20221;-65
2022/01/18 13:02:03;;;;;;;1.60;1.00;;;17.50;63.70;;;;;;10470364;28;20192;-65
2022/01/18 13:07:26;;;;;;;2.33;0.97;;;17.50;63.80;;;;;;10455656;28;20224;-65
2022/01/18 13:12:50;;;;;;;2.00;0.80;;;17.50;64.00;;;;;;10448222;28;20201;-65
2022/01/18 13:24:13;;;;;;;3.77;0.80;;;17.50;64.10;;;;;;10451251;28;20372;-66
2022/01/18 13:29:37;;;;;;;2.13;1.10;;;17.40;64.20;;;;;;10446910;28;20201;-65
2022/01/18 13:35:01;;;;;;;4.30;1.40;;;17.40;64.20;;;;;;10458928;28;20683;-66
2022/01/18 13:40:25;;;;;;;2.20;0.90;;;17.40;64.30;;;;;;10455616;28;20580;-65
2022/01/18 13:45:48;;;;;;;3.27;1.27;;;17.40;64.40;;;;;;10454699;28;20708;-65
2022/01/18 13:51:14;;;;;;;2.60;0.87;;;17.40;64.30;;;;;;10455853;28;20204;-65
2022/01/18 13:56:47;;;;;;;2.13;0.90;;;17.40;64.40;;;;;;10459461;28;20209;-65
2022/01/18 14:02:13;;;;;;;3.03;1.07;;;17.50;64.80;;;;;;10455414;28;20204;-64
2022/01/18 14:07:35;;;;;;;2.17;0.90;;;17.40;64.40;;;;;;10453760;28;20592;-65
2022/01/18 14:12:57;;;;;;;1.90;1.13;;;17.40;64.40;;;;;;10444416;28;20276;-67
2022/01/18 14:18:21;;;;;;;2.00;0.93;;;17.50;64.50;;;;;;10457246;28;20196;-66
2022/01/18 14:23:43;;;;;;;2.17;0.73;;;17.50;64.40;;;;;;10453499;28;20217;-67
2022/01/18 14:29:05;;;;;;;2.23;1.20;;;17.50;64.30;;;;;;10454426;28;20189;-67
2022/01/18 14:34:30;;;;;;;2.27;0.80;;;17.50;64.30;;;;;;10439764;28;20217;-67
2022/01/18 14:39:57;;;;;;;1.87;0.83;;;17.50;64.30;;;;;;10453956;28;20691;-69
2022/01/18 14:45:36;;;;;;;1.87;0.77;;;17.50;64.30;;;;;;10443981;28;20213;-67
2022/01/18 14:51:00;;;;;;;2.00;1.07;;;17.50;64.30;;;;;;10434177;28;20208;-68
2022/01/18 14:56:22;;;;;;;2.30;0.77;;;17.50;64.30;;;;;;10454844;28;20577;-67
2022/01/18 15:01:48;;;;;;;2.10;1.07;;;17.50;64.40;;;;;;10458937;28;20201;-67
2022/01/18 15:07:12;;;;;;;2.43;0.93;;;17.50;64.40;;;;;;10450959;28;20304;-67
2022/01/18 15:12:34;;;;;;;3.22;1.40;;;17.50;64.30;;;;;;10458484;28;20791;-63
2022/01/18 15:17:57;;;;;;;1.90;0.98;;;18.50;61.00;;;;;;10451612;28;20443;-64
2022/01/18 15:23:21;;;;;;;2.47;0.90;;;18.40;61.60;;;;;;10458985;28;20599;-64
2022/01/18 15:28:43;;;;;;;1.83;0.83;;;18.00;63.00;;;;;;10448944;28;20200;-65
2022/01/18 15:34:05;;;;;;;3.13;1.00;;;17.80;63.60;;;;;;10451720;28;20225;-65
2022/01/18 15:39:29;;;;;;;2.87;1.20;;;17.70;63.90;;;;;;10453327;28;20197;-65
2022/01/18 15:44:51;;;;;;;3.57;1.07;;;17.70;64.20;;;;;;10452794;28;20229;-65
2022/01/18 15:50:14;;;;;;;2.37;1.13;;;17.70;64.70;;;;;;10452450;28;20671;-65
2022/01/18 15:55:37;;;;;;;5.55;1.30;;;17.70;64.80;;;;;;10441611;28;20432;-64
2022/01/18 16:00:59;;;;;;;2.10;1.10;;;18.60;61.80;;;;;;10440769;28;20201;-65
2022/01/18 16:06:22;;;;;;;4.13;0.90;;;18.10;63.40;;;;;;10440290;28;20595;-66
2022/01/18 16:11:45;;;;;;;2.27;1.00;;;17.90;64.00;;;;;;10452036;28;20229;-64
2022/01/18 16:17:08;;;;;;;2.90;1.07;;;17.80;64.90;;;;;;10465499;22;20217;-73
2022/01/18 16:22:30;;;;;;;2.03;1.10;;;17.80;64.40;;;;;;10418699;28;20577;-69
2022/01/18 16:27:54;;;;;;;1.50;0.97;;;17.70;64.50;;;;;;10410513;28;20226;-69
2022/01/18 16:33:16;;;;;;;1.50;0.83;;;17.70;64.50;;;;;;10373281;28;20207;-69
2022/01/18 16:38:39;;;;;;;4.60;1.83;;;17.70;64.60;;;;;;10361212;28;20210;-69
2022/01/18 16:44:02;;;;;;;1.73;1.07;;;17.70;64.70;;;;;;10367850;28;20214;-69
2022/01/18 16:49:24;;;;;;;3.67;1.40;;;17.70;64.70;;;;;;10368386;28;20211;-69
2022/01/18 16:54:47;;;;;;;2.67;1.33;;;17.70;64.60;;;;;;10370052;28;20217;-70
2022/01/18 17:00:12;;;;;;;1.80;1.00;;;17.70;64.60;;;;;;10340517;28;20218;-67
2022/01/18 17:05:35;;;;;;;2.60;1.03;;;17.70;64.60;;;;;;10373514;28;20225;-70
2022/01/18 17:10:57;;;;;;;2.10;1.13;;;17.80;64.70;;;;;;10375062;28;20224;-69
2022/01/18 17:16:21;;;;;;;1.33;0.93;;;17.80;64.70;;;;;;10338566;28;20187;-68
2022/01/18 17:21:44;;;;;;;1.17;0.90;;;17.70;64.60;;;;;;10350022;28;20796;-67
2022/01/18 17:27:06;;;;;;;1.80;1.10;;;17.70;64.60;;;;;;10359141;28;20250;-68
2022/01/18 17:32:30;;;;;;;3.53;1.27;;;17.60;64.70;;;;;;10373595;28;20195;-69
2022/01/18 17:37:52;;;;;;;3.67;1.03;;;17.60;64.80;;;;;;10361674;28;20613;-68
2022/01/18 17:43:16;;;;;;;1.73;1.10;;;17.60;64.90;;;;;;10376566;28;20194;-68
2022/01/18 17:48:40;;;;;;;3.13;1.10;;;17.60;65.00;;;;;;10372578;28;20581;-68
2022/01/18 17:54:02;;;;;;;1.60;1.07;;;17.60;65.10;;;;;;10366483;28;20205;-71
2022/01/18 17:59:25;;;;;;;1.10;0.90;;;17.60;65.20;;;;;;10406449;28;20214;-71
2022/01/18 18:04:48;;;;;;;1.43;1.10;;;17.60;65.20;;;;;;10395682;28;20254;-71
2022/01/18 18:10:11;;;;;;;1.87;1.30;;;17.70;65.10;;;;;;10369571;28;20616;-70
2022/01/18 18:15:33;;;;;;;1.07;0.80;;;17.70;65.00;;;;;;10374169;28;20221;-71
2022/01/18 18:20:57;;;;;;;2.47;1.00;;;17.70;65.00;;;;;;10376182;28;20724;-71
2022/01/18 18:26:19;;;;;;;2.30;1.13;;;17.80;65.00;;;;;;10369811;28;20221;-71
2022/01/18 18:31:43;;;;;;;1.60;1.20;;;17.70;64.90;;;;;;10374854;28;20226;-72
2022/01/18 18:37:06;;;;;;;2.60;1.10;;;17.80;64.90;;;;;;10372284;28;20200;-71
2022/01/18 18:42:35;;;;;;;1.63;1.00;;;17.80;64.90;;;;;;10374104;28;20697;-71
2022/01/18 18:47:57;;;;;;;1.47;1.10;;;17.80;64.80;;;;;;10375094;28;20222;-71
2022/01/18 18:53:21;;;;;;;1.37;0.90;;;17.80;64.70;;;;;;10372740;28;20198;-72
2022/01/18 18:59:04;;;;;;;1.40;1.00;;;17.80;64.70;;;;;;10378602;28;20214;-70
2022/01/18 19:04:26;;;;;;;3.73;1.13;;;17.80;64.60;;;;;;10367376;28;20670;-69
2022/01/18 19:09:49;;;;;;;2.53;1.53;;;17.70;64.50;;;;;;10332179;28;20804;-70
2022/01/18 19:15:14;;;;;;;1.17;0.97;;;17.80;64.10;;;;;;10370011;28;20194;-69
2022/01/18 19:20:36;;;;;;;1.10;1.00;;;17.70;64.70;;;;;;10373209;28;20229;-69
2022/01/18 19:26:00;;;;;;;1.43;1.10;;;17.70;65.10;;;;;;10370753;28;20222;-69
2022/01/18 19:31:22;;;;;;;1.87;1.07;;;17.70;65.30;;;;;;10374889;28;20357;-69
2022/01/18 19:36:47;;;;;;;1.00;0.90;;;17.70;65.40;;;;;;10370745;28;20209;-69
2022/01/18 19:42:14;;;;;;;3.17;1.30;;;17.70;65.50;;;;;;10373024;28;20198;-68
2022/01/18 19:47:36;;;;;;;2.77;1.47;;;17.70;65.50;;;;;;10373150;28;20606;-70
2022/01/18 19:52:59;;;;;;;1.37;1.10;;;17.70;66.10;;;;;;10358638;28;20195;-70
2022/01/18 19:58:23;;;;;;;1.67;1.30;;;17.70;65.60;;;;;;10345882;28;20225;-70
2022/01/18 20:03:45;;;;;;;3.75;1.40;;;17.70;65.60;;;;;;10346955;28;20427;-69
2022/01/18 20:09:11;;;;;;;2.53;1.33;;;18.10;64.20;;;;;;10363121;28;20221;-69
2022/01/18 20:14:35;;;;;;;2.43;1.00;;;17.90;65.00;;;;;;10372754;28;20205;-69
2022/01/18 20:19:58;;;;;;;1.63;1.10;;;17.80;65.30;;;;;;10338926;28;20234;-70
2022/01/18 20:25:20;;;;;;;2.50;1.30;;;17.70;65.30;;;;;;10335842;28;20210;-70
2022/01/18 20:30:44;;;;;;;1.33;1.23;;;17.80;65.40;;;;;;10356290;28;20687;-69
2022/01/18 20:36:06;;;;;;;1.77;1.13;;;17.80;65.40;;;;;;10360799;28;20194;-69
2022/01/18 20:43:34;;;;;;;3.43;1.20;;;17.70;65.30;;;;;;10385519;28;20214;-68
2022/01/18 20:47:15;;;;;;;1.10;0.97;;;17.80;65.40;;;;;;10377142;28;20225;-69
2022/01/18 20:52:37;;;;;;;1.63;1.30;;;17.70;65.30;;;;;;10352569;28;20673;-68
2022/01/18 20:57:59;;;;;;;1.63;0.97;;;17.70;65.20;;;;;;10346919;28;20206;-69
2022/01/18 21:03:22;;;;;;;2.10;1.23;;;17.70;65.20;;;;;;10351180;28;20195;-69
2022/01/18 21:08:44;;;;;;;2.17;1.20;;;17.70;65.20;;;;;;10358003;28;20625;-69
2022/01/18 21:14:14;;;;;;;2.20;1.30;;;17.70;65.20;;;;;;10339245;28;20195;-69
2022/01/18 21:19:38;;;;;;;1.20;1.10;;;17.70;65.10;;;;;;10339149;28;20215;-69
2022/01/18 21:25:00;;;;;;;1.30;1.00;;;17.70;65.10;;;;;;10342225;28;20211;-69
2022/01/18 21:30:22;;;;;;;1.73;1.10;;;17.70;65.10;;;;;;10348758;28;20582;-69
2022/01/18 21:35:47;;;;;;;0.97;0.90;;;17.70;65.10;;;;;;10343656;28;20202;-69
2022/01/18 21:41:09;;;;;;;2.20;1.20;;;17.70;65.10;;;;;;10366351;28;20225;-68
2022/01/18 21:46:32;;;;;;;1.73;0.87;;;17.70;65.10;;;;;;10352881;28;20218;-70
2022/01/18 21:51:56;;;;;;;1.07;0.97;;;17.70;65.10;;;;;;10355097;28;20711;-68
2022/01/18 21:57:18;;;;;;;1.93;1.30;;;17.70;65.10;;;;;;10356598;28;20566;-69
2022/01/18 22:02:41;;;;;;;1.57;1.10;;;17.70;65.10;;;;;;10352690;28;20198;-69
2022/01/18 22:08:05;;;;;;;1.47;1.20;;;17.70;65.10;;;;;;10346859;28;20238;-69
2022/01/18 22:13:27;;;;;;;1.57;1.10;;;17.70;65.10;;;;;;10352361;28;20206;-70
2022/01/18 22:18:50;;;;;;;1.10;1.00;;;17.70;65.10;;;;;;10407859;22;20720;-65
2022/01/18 22:24:14;;;;;;;1.47;1.10;;;17.60;65.00;;;;;;10490230;28;20196;-65
2022/01/18 22:29:36;;;;;;;1.40;0.97;;;17.60;65.00;;;;;;10497514;28;20224;-65
2022/01/18 22:34:58;;;;;;;2.23;1.30;;;17.60;65.00;;;;;;10495879;28;20192;-66
2022/01/18 22:40:21;;;;;;;1.93;1.10;;;17.60;64.90;;;;;;10496895;28;20278;-65
2022/01/18 22:45:45;;;;;;;0.97;0.87;;;17.60;64.80;;;;;;10496206;28;20679;-65
2022/01/18 22:51:07;;;;;;;1.17;1.07;;;17.70;64.90;;;;;;10475615;28;20262;-65
2022/01/18 22:56:30;;;;;;;1.80;1.00;;;17.60;64.90;;;;;;10494768;28;20196;-65
2022/01/18 23:01:52;;;;;;;1.60;1.10;;;17.60;64.80;;;;;;10489095;28;20216;-65
2022/01/18 23:07:15;;;;;;;1.20;1.03;;;17.60;64.70;;;;;;10474991;28;20683;-65
2022/01/18 23:12:39;;;;;;;0.83;0.83;;;17.60;64.70;;;;;;10473262;28;20193;-65
2022/01/18 23:18:01;;;;;;;2.30;1.20;;;17.60;64.70;;;;;;10485978;28;20219;-66
2022/01/18 23:23:23;;;;;;;1.50;1.20;;;17.60;64.70;;;;;;10493198;28;20614;-65
2022/01/18 23:28:46;;;;;;;1.00;0.90;;;17.60;64.70;;;;;;10491025;28;20277;-66
2022/01/18 23:34:11;;;;;;;2.20;0.80;;;17.60;64.60;;;;;;10469540;28;20212;-65
2022/01/18 23:39:40;;;;;;;1.73;1.20;;;17.60;64.60;;;;;;10477750;28;20216;-64
2022/01/18 23:45:04;;;;;;;1.77;1.20;;;17.60;64.70;;;;;;10469427;28;20580;-65
2022/01/18 23:50:26;;;;;;;1.53;0.90;;;17.60;64.60;;;;;;10456923;28;20220;-65
2022/01/18 23:55:48;;;;;;;1.10;1.00;;;17.60;64.60;;;;;;10464266;28;20205;-66
